Latest Weather Observations for Batchelor

IDD60801

Issued at 5:31 pm CST Wednesday 2 September 2015 (issued every 30 minutes, with the page automatically refreshed every 10 minutes)

About weather observations | Map of weather stations | Latest weather observations for NT | Other Formats
Station Details ID: 014272 Name: BATCHELOR AIRPORT Lat: -13.05 Lon: 131.03 Height: 104.0 m
Data from the previous 72 hours. | See also: Recent months at Batchelor
Date/Time
CST
Temp
°C
App
Temp
°C
Dew
Point
Rel
Hum
%
Delta-T
°C
Wind Press
QNH
hPa
Press
MSL
hPa
Rain
since 9 am
mm
Dir
 
Spd
km/h
Gust
km/h
Spd
kts
Gust
kts
02/05:30pm 34.7 34.1 11.8 25 13.7 NE 6 13 3 7 1011.2 1010.6 0.0
02/05:00pm 35.0 34.7 11.4 24 14.0 N 4 7 2 4 1011.0 1010.4 0.0
02/04:30pm 33.8 33.2 11.6 26 13.1 ENE 6 7 3 4 1011.1 1010.5 0.0
02/04:00pm 33.9 33.3 12.3 27 12.9 NNE 7 13 4 7 1011.1 1010.5 0.0
02/03:30pm 35.4 34.8 12.4 25 13.9 NNW 7 13 4 7 1011.3 1010.7 0.0
02/03:00pm 35.1 34.6 12.7 26 13.6 NE 7 17 4 9 1011.6 1011.0 0.0
02/02:30pm 34.7 34.1 12.4 26 13.4 NNE 7 15 4 8 1012.2 1011.6 0.0
02/02:00pm 34.6 34.9 14.5 30 12.5 SW 6 13 3 7 1012.9 1012.2 0.0
02/01:30pm 33.6 32.9 13.1 29 12.4 NNW 9 13 5 7 1013.5 1012.8 0.0
02/01:00pm 33.3 34.1 14.8 32 11.5 ENE 4 13 2 7 1014.2 1013.5 0.0
02/12:30pm 31.9 32.4 15.0 36 10.4 SSW 6 15 3 8 1014.9 1014.2 0.0
02/12:00pm 32.3 32.2 14.9 35 10.7 NW 9 20 5 11 1015.4 1014.7 0.0
02/11:30am 31.8 32.2 15.3 37 10.2 WNW 7 17 4 9 1016.1 1015.4 0.0
02/11:00am 31.2 31.6 16.4 41 9.3 W 9 15 5 8 1016.7 1016.0 0.0
02/10:30am 30.3 31.2 16.7 44 8.6 NNW 7 13 4 7 1016.9 1016.2 0.0
02/10:00am 29.1 29.8 16.0 45 8.1 WSW 7 13 4 7 1017.1 1016.4 0.0
02/09:30am 28.1 29.7 17.9 54 6.5 SSW 6 9 3 5 1017.0 1016.3 0.0
02/09:00am 26.7 29.1 18.8 62 5.1 S 4 6 2 3 1016.8 1016.1 0.0
02/08:30am 26.1 29.4 20.0 69 4.0 ENE 2 4 1 2 1016.5 1015.8 0.0
02/08:00am 23.8 27.6 20.1 80 2.4 CALM 0 0 0 0 1016.2 1015.5 0.0
02/07:30am 21.0 24.4 19.3 90 1.1 CALM 0 0 0 0 1016.0 1015.3 0.0
02/07:00am 19.9 22.9 18.4 91 0.9 CALM 0 0 0 0 1015.5 1014.8 0.0
02/06:30am 19.7 22.4 17.8 89 1.2 CALM 0 0 0 0 1015.0 1014.3 0.0
02/06:00am 20.3 23.4 18.6 90 1.1 CALM 0 0 0 0 1014.6 1013.9 0.0
02/05:30am 20.4 23.5 18.7 90 1.1 CALM 0 0 0 0 1014.4 1013.7 0.0
02/05:00am 20.1 23.0 18.1 88 1.2 CALM 0 0 0 0 1014.4 1013.7 0.0
02/04:30am 20.7 23.7 18.5 87 1.4 CALM 0 0 0 0 1014.3 1013.6 0.0
02/04:00am 20.9 23.8 18.1 84 1.7 CALM 0 0 0 0 1014.4 1013.7 0.0
02/03:30am 21.4 24.6 18.8 85 1.6 CALM 0 2 0 1 1014.2 1013.5 0.0
02/03:00am 21.5 24.2 18.7 84 1.8 WSW 2 6 1 3 1014.1 1013.4 0.0
02/02:30am 22.1 25.3 18.9 82 2.0 CALM 0 0 0 0 1014.1 1013.4 0.0
02/02:00am 22.5 25.6 18.7 79 2.4 CALM 0 0 0 0 1014.2 1013.5 0.0
02/01:30am 22.9 25.5 18.4 76 2.8 WSW 2 2 1 1 1014.3 1013.6 0.0
02/01:00am 23.5 25.5 18.8 75 3.0 WSW 6 9 3 5 1014.4 1013.7 0.0
02/12:30am 23.6 25.9 18.5 73 3.2 W 4 6 2 3 1014.5 1013.8 0.0
02/12:00am 23.9 26.1 18.3 71 3.5 W 4 6 2 3 1014.5 1013.8 0.0
 
Date/Time
CST
Temp
°C
App
Temp
°C
Dew
Point
Rel
Hum
%
Delta-T
°C
Wind Press
QNH
hPa
Press
MSL
hPa
Rain
since 9 am
mm
Dir
 
Spd
km/h
Gust
km/h
Spd
kts
Gust
kts
01/11:30pm 24.2 26.0 18.2 69 3.8 WSW 6 7 3 4 1014.5 1013.8 0.0
01/11:00pm 24.5 26.6 18.2 68 4.0 WSW 4 6 2 3 1014.5 1013.8 0.0
01/10:30pm 24.8 26.6 18.3 67 4.1 WSW 6 9 3 5 1014.3 1013.6 0.0
01/10:00pm 25.3 27.0 18.5 66 4.3 WSW 7 11 4 6 1014.2 1013.5 0.0
01/09:30pm 25.8 27.7 18.5 64 4.7 WSW 6 9 3 5 1014.0 1013.3 0.0
01/09:00pm 26.5 27.4 18.4 61 5.2 WSW 11 17 6 9 1013.7 1013.0 0.0
01/08:30pm 27.1 27.9 16.4 52 6.6 W 7 11 4 6 1013.4 1012.7 0.0
01/08:00pm 27.6 28.5 16.6 51 6.9 WNW 7 13 4 7 1013.0 1012.3 0.0
01/07:30pm 28.2 28.5 18.0 54 6.5 W 13 22 7 12 1012.5 1011.9 0.0
01/07:00pm 29.0 29.3 15.9 45 8.1 WNW 9 13 5 7 1012.1 1011.5 0.0
01/06:30pm 29.2 29.4 16.7 46 7.9 NW 11 17 6 9 1011.9 1011.3 0.0
01/06:00pm 29.5 28.4 17.3 47 7.7 NW 19 28 10 15 1011.5 1010.9 0.0
01/05:30pm 31.0 30.0 18.0 45 8.4 NW 20 30 11 16 1011.3 1010.7 0.0
01/05:00pm 31.7 31.2 18.7 46 8.5 WNW 19 26 10 14 1010.9 1010.2 0.0
01/04:30pm 31.9 31.8 18.8 45 8.6 WNW 17 26 9 14 1010.7 1010.0 0.0
01/04:00pm 33.4 33.9 17.5 38 10.2 WNW 11 19 6 10 1010.8 1010.1 0.0
01/03:30pm 33.2 32.7 17.0 38 10.4 WNW 15 20 8 11 1011.1 1010.5 0.0
01/03:00pm 32.7 31.9 18.1 42 9.5 WNW 19 28 10 15 1011.3 1010.7 0.0
01/02:30pm 34.7 34.5 14.6 30 12.5 WNW 9 17 5 9 1011.7 1011.1 0.0
01/02:00pm 33.9 33.8 14.9 32 11.8 W 9 17 5 9 1012.3 1011.7 0.0
01/01:30pm 33.0 33.3 15.0 33 11.2 NE 7 13 4 7 1013.1 1012.4 0.0
01/01:00pm 33.0 32.5 15.0 33 11.2 NNW 11 17 6 9 1013.6 1012.9 0.0
01/12:30pm 32.2 32.2 15.2 35 10.6 NNW 9 20 5 11 1014.0 1013.3 0.0
01/12:00pm 31.6 31.7 15.5 37 10.0 N 9 15 5 8 1014.6 1013.9 0.0
01/11:30am 31.9 32.7 17.4 42 9.3 NNW 9 15 5 8 1015.0 1014.3 0.0
01/11:00am 30.4 31.6 18.2 48 7.9 N 9 15 5 8 1015.5 1014.8 0.0
01/10:30am 29.1 30.5 17.9 50 7.2 NW 7 11 4 6 1016.0 1015.3 0.0
01/10:00am 28.6 30.4 18.7 55 6.4 WNW 7 15 4 8 1016.1 1015.4 0.0
01/09:30am 27.8 30.8 21.3 67 4.3 WSW 7 11 4 6 1016.2 1015.5 0.0
01/09:00am 26.7 29.9 21.7 74 3.3 W 7 11 4 6 1016.1 1015.6 0.0
01/08:30am 25.7 29.6 21.8 79 2.6 WSW 4 7 2 4 1015.9 1015.4 0.0
01/08:00am 24.4 29.3 22.3 88 1.4 CALM 0 0 0 0 1015.5 1014.9 0.0
01/07:30am 22.4 26.7 21.2 93 0.8 CALM 0 0 0 0 1015.1 1014.5 0.0
01/07:00am 21.6 25.5 20.4 93 0.8 CALM 0 0 0 0 1014.7 1014.1 0.0
01/06:30am 21.5 25.4 20.3 93 0.8 CALM 0 0 0 0 1014.4 1013.8 0.0
01/06:00am 21.6 25.4 20.2 92 0.9 CALM 0 0 0 0 1014.1 1013.5 0.0
01/05:30am 21.9 25.9 20.5 92 0.9 CALM 0 0 0 0 1013.6 1013.0 0.0
01/05:00am 21.9 25.7 20.2 90 1.1 CALM 0 0 0 0 1013.6 1013.0 0.0
01/04:30am 22.4 26.4 20.5 89 1.2 CALM 0 0 0 0 1013.6 1013.0 0.0
01/04:00am 22.7 26.2 20.4 87 1.5 NNW 2 2 1 1 1013.7 1013.1 0.0
01/03:30am 23.3 27.4 20.8 86 1.6 CALM 0 2 0 1 1013.8 1013.2 0.0
01/03:00am 23.4 26.8 20.9 86 1.6 NNW 4 6 2 3 1014.0 1013.4 0.0
01/02:30am 23.4 27.2 20.9 86 1.6 NNW 2 4 1 2 1013.9 1013.3 0.0
01/02:00am 23.3 26.8 20.4 84 1.9 NNW 2 2 1 1 1013.9 1013.3 0.0
01/01:30am 23.5 26.3 20.4 83 2.0 WNW 6 6 3 3 1014.0 1013.4 0.0
01/01:00am 23.7 27.2 20.4 82 2.2 WSW 2 4 1 2 1014.3 1013.7 0.0
01/12:30am 23.8 27.7 20.3 81 2.3 CALM 0 2 0 1 1014.4 1013.8 0.0
01/12:00am 24.1 27.6 20.4 80 2.4 WSW 2 4 1 2 1014.4 1013.8 0.0
 
Date/Time
CST
Temp
°C
App
Temp
°C
Dew
Point
Rel
Hum
%
Delta-T
°C
Wind Press
QNH
hPa
Press
MSL
hPa
Rain
since 9 am
mm
Dir
 
Spd
km/h
Gust
km/h
Spd
kts
Gust
kts
31/11:30pm 24.3 27.5 20.4 79 2.5 WSW 4 6 2 3 1014.3 1013.7 0.0
31/11:00pm 24.6 27.5 20.7 79 2.6 WSW 6 7 3 4 1014.4 1013.8 0.0
31/10:30pm 24.9 27.9 20.8 78 2.7 WSW 6 11 3 6 1014.4 1013.8 0.0
31/10:00pm 25.1 28.1 20.8 77 2.8 WSW 6 7 3 4 1014.4 1013.8 0.0
31/09:30pm 25.5 28.4 21.0 76 3.0 W 7 9 4 5 1014.3 1013.7 0.0
31/09:00pm 25.8 28.6 20.8 74 3.3 WNW 7 11 4 6 1014.0 1013.4 0.0
31/08:30pm 26.1 28.4 20.7 72 3.6 W 9 15 5 8 1014.0 1013.4 0.0
31/08:00pm 26.5 28.6 20.1 68 4.2 WNW 9 19 5 10 1013.6 1013.0 0.0
31/07:30pm 27.0 28.5 20.6 68 4.2 WNW 13 20 7 11 1013.1 1012.5 0.0
31/07:00pm 27.6 29.0 20.4 65 4.7 WNW 13 20 7 11 1012.8 1012.2 0.0
31/06:30pm 28.8 29.4 20.3 60 5.6 WNW 17 22 9 12 1012.3 1011.8 0.0
31/06:00pm 29.7 30.7 20.3 57 6.2 WNW 15 24 8 13 1011.9 1011.4 0.0
31/05:30pm 30.3 31.4 20.5 55 6.5 NW 15 26 8 14 1011.7 1011.2 0.0
31/05:00pm 30.7 30.8 20.0 52 7.1 NW 19 30 10 16 1011.5 1011.0 0.0
31/04:30pm 33.8 33.8 17.1 37 10.7 NW 13 32 7 17 1011.2 1010.7 0.0
31/04:00pm 34.9 34.5 13.1 27 13.3 SE 7 13 4 7 1011.2 1010.7 0.0
31/03:30pm 33.9 34.4 13.9 30 12.3 W 4 7 2 4 1011.6 1011.1 0.0
31/03:00pm 32.7 32.2 13.8 31 11.5 NNE 9 11 5 6 1012.3 1011.8 0.0
31/02:30pm 34.3 33.8 13.7 29 12.6 N 9 17 5 9 1012.8 1012.2 0.0
31/02:00pm 33.5 33.1 14.0 30 11.9 ENE 9 17 5 9 1013.1 1012.5 0.0
31/01:30pm 33.4 33.3 14.0 31 11.9 NE 7 15 4 8 1013.4 1012.8 0.0
31/01:00pm 33.1 33.3 14.7 33 11.4 NW 7 17 4 9 1014.0 1013.4 0.0
31/12:30pm 32.0 33.3 17.1 41 9.5 SSE 6 9 3 5 1014.4 1013.8 0.0
31/12:00pm 31.9 33.3 17.8 43 9.1 NW 7 11 4 6 1015.1 1014.5 0.0
31/11:30am 31.1 32.6 18.1 46 8.4 NW 7 15 4 8 1015.7 1015.2 0.0
31/11:00am 29.9 31.9 18.7 51 7.3 NNW 6 11 3 6 1016.1 1015.6 0.0
31/10:30am 29.1 31.3 19.7 57 6.2 NW 7 11 4 6 1016.4 1015.9 0.0
31/10:00am 29.5 31.9 20.1 57 6.2 WNW 7 15 4 8 1016.4 1015.9 0.0
31/09:30am 28.2 31.1 20.7 63 5.0 WNW 6 9 3 5 1016.3 1015.8 0.0
31/09:00am 26.5 29.4 21.0 72 3.6 WSW 7 11 4 6 1016.2 1015.7 0.0
31/08:30am 25.2 28.3 21.5 80 2.5 WNW 7 11 4 6 1016.1 1015.6 0.0
31/08:00am 23.8 27.5 21.5 87 1.5 WNW 4 6 2 3 1015.8 1015.3 0.0
31/07:30am 22.3 25.5 21.3 94 0.7 NNW 6 9 3 5 1015.5 1014.9 0.0
31/07:00am 21.3 25.3 20.5 95 0.5 CALM 0 0 0 0 1015.6 1015.0 0.0
31/06:30am 21.0 24.6 19.8 93 0.8 CALM 0 0 0 0 1015.0 1014.4 0.0
31/06:00am 21.5 25.4 20.3 93 0.8 CALM 0 0 0 0 1014.5 1013.9 0.0
31/05:30am 21.6 25.4 20.2 92 0.9 CALM 0 0 0 0 1014.4 1013.8 0.0
31/05:00am 22.3 26.0 20.8 91 1.0 NE 2 4 1 2 1014.2 1013.6 0.0
31/04:30am 22.5 26.3 21.0 91 1.0 NE 2 4 1 2 1014.2 1013.6 0.0
31/04:00am 22.7 25.9 21.2 91 1.0 NE 6 7 3 4 1014.5 1013.9 0.0
31/03:30am 22.5 25.6 21.1 92 0.9 N 6 6 3 3 1014.4 1013.8 0.0
31/03:00am 22.5 25.9 21.0 91 1.0 N 4 6 2 3 1014.3 1013.7 0.0
31/02:30am 22.8 26.0 21.3 91 1.0 W 6 7 3 4 1014.6 1014.0 0.0
31/02:00am 22.7 26.1 21.0 90 1.1 W 4 6 2 3 1014.7 1014.1 0.0
31/01:30am 22.8 26.9 20.7 88 1.4 CALM 0 0 0 0 1015.0 1014.4 0.0
31/01:00am 23.5 27.2 20.8 85 1.8 W 2 2 1 1 1015.1 1014.5 0.0
31/12:30am 24.0 27.9 21.1 84 1.9 W 2 4 1 2 1015.5 1014.9 0.0
31/12:00am 24.2 28.1 21.1 83 2.0 W 2 4 1 2 1015.7 1015.2 0.0
 
Date/Time
CST
Temp
°C
App
Temp
°C
Dew
Point
Rel
Hum
%
Delta-T
°C
Wind Press
QNH
hPa
Press
MSL
hPa
Rain
since 9 am
mm
Dir
 
Spd
km/h
Gust
km/h
Spd
kts
Gust
kts
30/11:30pm 24.5 28.3 21.0 81 2.3 W 2 4 1 2 1015.7 1015.2 0.0
30/11:00pm 24.8 28.3 21.1 80 2.4 WSW 4 9 2 5 1015.5 1014.9 0.0
30/10:30pm 25.2 28.1 21.1 78 2.7 WSW 7 11 4 6 1015.3 1014.7 0.0
30/10:00pm 25.4 28.1 20.6 75 3.2 WSW 7 9 4 5 1015.2 1014.6 0.0
30/09:30pm 25.7 28.0 20.7 74 3.3 WSW 9 15 5 8 1015.1 1014.5 0.0
30/09:00pm 26.0 28.0 20.8 73 3.4 WSW 11 17 6 9 1014.8 1014.2 0.0
30/08:30pm 26.4 29.0 21.2 73 3.5 WNW 9 15 5 8 1014.5 1013.9 0.0
30/08:00pm 26.9 28.7 21.2 71 3.8 WNW 13 22 7 12 1014.2 1013.6 0.0
30/07:30pm 27.4 29.2 21.2 69 4.1 WNW 13 24 7 13 1013.8 1013.2 0.0
30/07:00pm 28.1 29.9 21.1 65 4.7 WNW 13 20 7 11 1013.4 1012.8 0.0
30/06:30pm 29.1 29.9 21.3 62 5.2 WNW 19 28 10 15 1012.8 1012.2 0.0
30/06:00pm 31.2 31.7 20.8 54 7.0 NW 19 28 10 15 1012.2 1011.7 0.0

Other Formats:

Comma delimited format used in spreadsheet applications
http://www.bom.gov.au/fwo/IDD60801/IDD60801.94125.axf

JavaScript Object Notation format (JSON) in row-major order
http://www.bom.gov.au/fwo/IDD60801/IDD60801.94125.json